sensor_id;sensor_type;location;lat;lon;timestamp;pressure;altitude;pressure_sealevel;temperature;humidity
12973;BME280;6551;51.056;9.466;2022-08-19T00:00:17;97263.31;;;26.62;57.22
12973;BME280;6551;51.056;9.466;2022-08-19T00:02:43;97265.28;;;26.32;57.58
12973;BME280;6551;51.056;9.466;2022-08-19T00:05:10;97256.53;;;26.39;57.83
12973;BME280;6551;51.056;9.466;2022-08-19T00:07:36;97264.75;;;26.01;58.69
12973;BME280;6551;51.056;9.466;2022-08-19T00:10:05;97259.38;;;26.22;58.64
12973;BME280;6551;51.056;9.466;2022-08-19T00:12:31;97260.41;;;26.00;58.66
12973;BME280;6551;51.056;9.466;2022-08-19T00:14:57;97256.78;;;26.25;58.58
12973;BME280;6551;51.056;9.466;2022-08-19T00:17:23;97245.66;;;26.59;57.78
12973;BME280;6551;51.056;9.466;2022-08-19T00:19:48;97245.00;;;26.83;56.72
12973;BME280;6551;51.056;9.466;2022-08-19T00:22:14;97264.16;;;26.54;57.74
12973;BME280;6551;51.056;9.466;2022-08-19T00:24:41;97274.06;;;26.38;57.59
12973;BME280;6551;51.056;9.466;2022-08-19T00:27:09;97273.28;;;26.37;57.55
12973;BME280;6551;51.056;9.466;2022-08-19T00:29:34;97263.47;;;26.65;57.00
12973;BME280;6551;51.056;9.466;2022-08-19T00:32:00;97274.00;;;26.96;56.22
12973;BME280;6551;51.056;9.466;2022-08-19T00:34:26;97271.06;;;26.81;56.85
12973;BME280;6551;51.056;9.466;2022-08-19T00:36:56;97268.28;;;27.10;56.02
12973;BME280;6551;51.056;9.466;2022-08-19T00:39:23;97259.69;;;26.79;56.78
12973;BME280;6551;51.056;9.466;2022-08-19T00:41:50;97261.19;;;26.88;56.68
12973;BME280;6551;51.056;9.466;2022-08-19T00:44:22;97241.56;;;27.27;56.12
12973;BME280;6551;51.056;9.466;2022-08-19T00:46:50;97243.94;;;27.50;55.70
12973;BME280;6551;51.056;9.466;2022-08-19T00:49:40;97241.09;;;27.58;55.42
12973;BME280;6551;51.056;9.466;2022-08-19T00:52:11;97245.25;;;27.76;55.17
12973;BME280;6551;51.056;9.466;2022-08-19T00:54:40;97242.81;;;27.30;56.00
12973;BME280;6551;51.056;9.466;2022-08-19T00:57:10;97238.81;;;27.27;56.48
12973;BME280;6551;51.056;9.466;2022-08-19T00:59:39;97237.66;;;27.49;55.75
12973;BME280;6551;51.056;9.466;2022-08-19T01:02:06;97227.78;;;27.57;55.42
12973;BME280;6551;51.056;9.466;2022-08-19T01:04:32;97225.84;;;27.69;54.87
12973;BME280;6551;51.056;9.466;2022-08-19T01:06:58;97223.53;;;28.04;54.32
12973;BME280;6551;51.056;9.466;2022-08-19T01:09:24;97214.13;;;27.81;55.14
12973;BME280;6551;51.056;9.466;2022-08-19T01:11:50;97212.06;;;27.33;55.71
12973;BME280;6551;51.056;9.466;2022-08-19T01:14:16;97205.19;;;27.15;56.91
12973;BME280;6551;51.056;9.466;2022-08-19T01:16:43;97220.50;;;27.07;56.83
12973;BME280;6551;51.056;9.466;2022-08-19T01:19:26;97215.69;;;27.25;56.78
12973;BME280;6551;51.056;9.466;2022-08-19T01:24:46;97230.16;;;27.25;56.26
12973;BME280;6551;51.056;9.466;2022-08-19T01:27:12;97235.06;;;27.20;56.79
12973;BME280;6551;51.056;9.466;2022-08-19T01:29:42;97230.50;;;27.24;56.89
12973;BME280;6551;51.056;9.466;2022-08-19T01:32:13;97227.22;;;27.30;56.69
12973;BME280;6551;51.056;9.466;2022-08-19T01:34:40;97228.16;;;27.35;56.63
12973;BME280;6551;51.056;9.466;2022-08-19T01:37:10;97224.88;;;27.41;55.99
12973;BME280;6551;51.056;9.466;2022-08-19T01:39:39;97219.13;;;27.67;56.05
12973;BME280;6551;51.056;9.466;2022-08-19T01:42:07;97221.88;;;27.67;55.88
12973;BME280;6551;51.056;9.466;2022-08-19T01:44:34;97225.38;;;27.43;55.96
12973;BME280;6551;51.056;9.466;2022-08-19T01:47:02;97220.41;;;27.37;55.69
12973;BME280;6551;51.056;9.466;2022-08-19T01:49:29;97226.41;;;27.51;55.41
12973;BME280;6551;51.056;9.466;2022-08-19T01:51:55;97228.56;;;27.57;55.26
12973;BME280;6551;51.056;9.466;2022-08-19T01:54:23;97225.41;;;27.67;55.30
12973;BME280;6551;51.056;9.466;2022-08-19T01:56:51;97224.59;;;27.67;54.89
12973;BME280;6551;51.056;9.466;2022-08-19T01:59:20;97222.00;;;27.82;54.66
12973;BME280;6551;51.056;9.466;2022-08-19T02:01:47;97226.88;;;27.77;54.77
12973;BME280;6551;51.056;9.466;2022-08-19T02:04:12;97224.63;;;27.79;54.65
12973;BME280;6551;51.056;9.466;2022-08-19T02:06:40;97228.97;;;27.92;55.17
12973;BME280;6551;51.056;9.466;2022-08-19T02:09:07;97226.38;;;28.20;54.60
12973;BME280;6551;51.056;9.466;2022-08-19T02:11:35;97215.31;;;27.47;55.74
12973;BME280;6551;51.056;9.466;2022-08-19T02:14:05;97215.81;;;27.28;56.24
12973;BME280;6551;51.056;9.466;2022-08-19T02:16:33;97219.44;;;27.20;56.08
12973;BME280;6551;51.056;9.466;2022-08-19T02:18:59;97222.56;;;26.98;56.51
12973;BME280;6551;51.056;9.466;2022-08-19T02:21:29;97230.19;;;27.05;56.82
12973;BME280;6551;51.056;9.466;2022-08-19T02:23:55;97236.75;;;26.71;57.25
12973;BME280;6551;51.056;9.466;2022-08-19T02:26:21;97225.75;;;26.80;57.20
12973;BME280;6551;51.056;9.466;2022-08-19T02:28:48;97240.75;;;26.94;56.82
12973;BME280;6551;51.056;9.466;2022-08-19T02:31:18;97240.72;;;27.15;57.64
12973;BME280;6551;51.056;9.466;2022-08-19T02:33:45;97242.78;;;27.18;56.63
12973;BME280;6551;51.056;9.466;2022-08-19T02:36:13;97241.31;;;27.20;56.46
12973;BME280;6551;51.056;9.466;2022-08-19T02:38:39;97238.28;;;27.34;56.31
12973;BME280;6551;51.056;9.466;2022-08-19T02:41:12;97232.78;;;27.55;56.13
12973;BME280;6551;51.056;9.466;2022-08-19T02:43:38;97220.22;;;27.42;55.91
12973;BME280;6551;51.056;9.466;2022-08-19T02:46:32;97225.06;;;27.81;55.42
12973;BME280;6551;51.056;9.466;2022-08-19T02:49:04;97217.09;;;28.00;55.07
12973;BME280;6551;51.056;9.466;2022-08-19T02:51:38;97208.16;;;27.55;56.15
12973;BME280;6551;51.056;9.466;2022-08-19T02:54:06;97216.72;;;27.53;55.94
12973;BME280;6551;51.056;9.466;2022-08-19T02:56:36;97223.38;;;27.88;55.81
12973;BME280;6551;51.056;9.466;2022-08-19T02:59:03;97228.59;;;27.69;55.82
12973;BME280;6551;51.056;9.466;2022-08-19T03:01:33;97227.09;;;27.60;55.46
12973;BME280;6551;51.056;9.466;2022-08-19T03:04:02;97235.63;;;27.58;55.91
12973;BME280;6551;51.056;9.466;2022-08-19T03:06:29;97229.84;;;27.60;55.86
12973;BME280;6551;51.056;9.466;2022-08-19T03:08:55;97240.25;;;27.13;56.75
12973;BME280;6551;51.056;9.466;2022-08-19T03:11:27;97239.53;;;27.37;56.68
12973;BME280;6551;51.056;9.466;2022-08-19T03:13:54;97232.38;;;27.32;56.30
12973;BME280;6551;51.056;9.466;2022-08-19T03:16:24;97236.16;;;27.19;56.75
12973;BME280;6551;51.056;9.466;2022-08-19T03:18:51;97232.34;;;26.99;57.45
12973;BME280;6551;51.056;9.466;2022-08-19T03:21:22;97234.03;;;27.24;56.71
12973;BME280;6551;51.056;9.466;2022-08-19T03:23:50;97244.16;;;27.45;56.47
12973;BME280;6551;51.056;9.466;2022-08-19T03:26:16;97251.44;;;27.41;56.15
12973;BME280;6551;51.056;9.466;2022-08-19T03:28:43;97255.63;;;27.71;55.55
12973;BME280;6551;51.056;9.466;2022-08-19T03:31:14;97253.34;;;27.85;55.35
12973;BME280;6551;51.056;9.466;2022-08-19T03:33:40;97247.84;;;27.07;56.61
12973;BME280;6551;51.056;9.466;2022-08-19T03:36:17;97248.50;;;26.63;57.55
12973;BME280;6551;51.056;9.466;2022-08-19T03:38:47;97253.81;;;26.39;58.94
12973;BME280;6551;51.056;9.466;2022-08-19T03:41:18;97259.44;;;26.63;58.37
12973;BME280;6551;51.056;9.466;2022-08-19T03:43:45;97262.09;;;26.71;58.34
12973;BME280;6551;51.056;9.466;2022-08-19T03:46:23;97271.59;;;26.95;57.79
12973;BME280;6551;51.056;9.466;2022-08-19T03:48:52;97260.84;;;27.10;57.32
12973;BME280;6551;51.056;9.466;2022-08-19T03:53:48;97265.59;;;26.81;58.26
12973;BME280;6551;51.056;9.466;2022-08-19T03:56:15;97262.91;;;26.72;57.89
12973;BME280;6551;51.056;9.466;2022-08-19T03:58:41;97271.25;;;26.46;58.51
12973;BME280;6551;51.056;9.466;2022-08-19T04:01:09;97273.94;;;26.34;59.17
12973;BME280;6551;51.056;9.466;2022-08-19T04:03:36;97278.13;;;26.32;59.13
12973;BME280;6551;51.056;9.466;2022-08-19T04:06:17;97281.25;;;26.42;59.61
12973;BME280;6551;51.056;9.466;2022-08-19T04:08:45;97275.56;;;26.27;59.37
12973;BME280;6551;51.056;9.466;2022-08-19T04:11:15;97273.22;;;26.46;59.13
12973;BME280;6551;51.056;9.466;2022-08-19T04:13:41;97267.81;;;26.37;58.78
12973;BME280;6551;51.056;9.466;2022-08-19T04:16:11;97272.81;;;26.56;58.83
12973;BME280;6551;51.056;9.466;2022-08-19T04:18:38;97267.44;;;26.68;58.46
12973;BME280;6551;51.056;9.466;2022-08-19T04:21:06;97272.31;;;26.62;58.85
12973;BME280;6551;51.056;9.466;2022-08-19T04:23:34;97270.63;;;26.79;58.77
12973;BME280;6551;51.056;9.466;2022-08-19T04:26:01;97271.09;;;26.72;58.34
12973;BME280;6551;51.056;9.466;2022-08-19T04:28:28;97270.63;;;26.79;57.76
12973;BME280;6551;51.056;9.466;2022-08-19T04:30:55;97265.34;;;26.94;57.96
12973;BME280;6551;51.056;9.466;2022-08-19T04:33:25;97273.16;;;27.04;57.90
12973;BME280;6551;51.056;9.466;2022-08-19T04:35:54;97279.06;;;26.86;57.95
12973;BME280;6551;51.056;9.466;2022-08-19T04:38:21;97270.56;;;26.58;58.44
12973;BME280;6551;51.056;9.466;2022-08-19T04:40:51;97278.50;;;26.51;58.82
12973;BME280;6551;51.056;9.466;2022-08-19T04:43:37;97274.56;;;26.60;58.50
12973;BME280;6551;51.056;9.466;2022-08-19T04:46:08;97276.97;;;26.62;58.54
12973;BME280;6551;51.056;9.466;2022-08-19T04:48:36;97276.00;;;26.58;58.38
12973;BME280;6551;51.056;9.466;2022-08-19T04:51:08;97280.16;;;26.64;58.68
12973;BME280;6551;51.056;9.466;2022-08-19T04:53:36;97286.94;;;26.58;58.64
12973;BME280;6551;51.056;9.466;2022-08-19T04:56:17;97289.25;;;26.77;58.37
12973;BME280;6551;51.056;9.466;2022-08-19T04:58:45;97290.03;;;26.77;58.43
12973;BME280;6551;51.056;9.466;2022-08-19T05:01:19;97289.75;;;26.70;58.79
12973;BME280;6551;51.056;9.466;2022-08-19T05:03:45;97278.84;;;26.41;59.07
12973;BME280;6551;51.056;9.466;2022-08-19T05:06:15;97283.09;;;26.30;59.22
12973;BME280;6551;51.056;9.466;2022-08-19T05:08:42;97275.38;;;26.32;59.50
12973;BME280;6551;51.056;9.466;2022-08-19T05:11:19;97274.16;;;26.50;59.25
12973;BME280;6551;51.056;9.466;2022-08-19T05:13:46;97275.41;;;26.52;59.54
12973;BME280;6551;51.056;9.466;2022-08-19T05:16:16;97272.78;;;26.35;59.64
12973;BME280;6551;51.056;9.466;2022-08-19T05:18:43;97285.50;;;26.31;59.76
12973;BME280;6551;51.056;9.466;2022-08-19T05:21:29;97277.81;;;26.54;59.49
12973;BME280;6551;51.056;9.466;2022-08-19T05:24:14;97274.13;;;25.74;59.83
12973;BME280;6551;51.056;9.466;2022-08-19T05:26:44;97278.34;;;26.09;60.46
12973;BME280;6551;51.056;9.466;2022-08-19T05:29:16;97274.84;;;25.63;60.96
12973;BME280;6551;51.056;9.466;2022-08-19T05:31:43;97274.75;;;25.80;62.46
12973;BME280;6551;51.056;9.466;2022-08-19T05:34:09;97282.41;;;25.95;61.57
12973;BME280;6551;51.056;9.466;2022-08-19T05:36:41;97273.41;;;26.03;61.23
12973;BME280;6551;51.056;9.466;2022-08-19T05:39:14;97278.34;;;26.09;60.70
12973;BME280;6551;51.056;9.466;2022-08-19T05:41:43;97277.69;;;26.21;61.29
12973;BME280;6551;51.056;9.466;2022-08-19T05:44:09;97293.78;;;26.14;61.00
12973;BME280;6551;51.056;9.466;2022-08-19T05:46:39;97285.16;;;25.95;61.25
12973;BME280;6551;51.056;9.466;2022-08-19T05:49:06;97291.66;;;26.11;60.66
12973;BME280;6551;51.056;9.466;2022-08-19T05:51:35;97275.69;;;26.30;59.70
12973;BME280;6551;51.056;9.466;2022-08-19T05:54:02;97278.69;;;26.46;59.72
12973;BME280;6551;51.056;9.466;2022-08-19T05:56:30;97266.94;;;26.45;59.86
12973;BME280;6551;51.056;9.466;2022-08-19T05:58:57;97272.91;;;26.39;59.84
12973;BME280;6551;51.056;9.466;2022-08-19T06:01:24;97277.00;;;26.83;58.72
12973;BME280;6551;51.056;9.466;2022-08-19T06:03:51;97274.19;;;27.12;58.19
12973;BME280;6551;51.056;9.466;2022-08-19T06:06:17;97272.19;;;27.21;57.90
12973;BME280;6551;51.056;9.466;2022-08-19T06:08:43;97286.34;;;27.02;57.83
12973;BME280;6551;51.056;9.466;2022-08-19T06:11:23;97286.19;;;27.40;57.54
12973;BME280;6551;51.056;9.466;2022-08-19T06:13:51;97279.44;;;27.38;57.10
12973;BME280;6551;51.056;9.466;2022-08-19T06:16:22;97289.72;;;27.85;56.41
12973;BME280;6551;51.056;9.466;2022-08-19T06:18:52;97288.16;;;27.84;55.70
12973;BME280;6551;51.056;9.466;2022-08-19T06:21:20;97297.00;;;27.69;55.73
12973;BME280;6551;51.056;9.466;2022-08-19T06:23:48;97293.69;;;28.09;55.36
12973;BME280;6551;51.056;9.466;2022-08-19T06:26:16;97298.47;;;28.24;54.74
12973;BME280;6551;51.056;9.466;2022-08-19T06:28:42;97301.91;;;28.69;53.54
12973;BME280;6551;51.056;9.466;2022-08-19T06:31:17;97297.44;;;27.71;55.22
12973;BME280;6551;51.056;9.466;2022-08-19T06:33:44;97297.81;;;27.70;55.54
12973;BME280;6551;51.056;9.466;2022-08-19T06:36:23;97303.72;;;28.41;54.49
12973;BME280;6551;51.056;9.466;2022-08-19T06:39:21;97313.44;;;28.14;54.81
12973;BME280;6551;51.056;9.466;2022-08-19T06:41:50;97316.19;;;28.38;54.34
12973;BME280;6551;51.056;9.466;2022-08-19T06:44:21;97314.13;;;28.35;53.94
12973;BME280;6551;51.056;9.466;2022-08-19T06:46:47;97325.28;;;28.18;54.10
12973;BME280;6551;51.056;9.466;2022-08-19T06:49:16;97341.41;;;28.44;53.66
12973;BME280;6551;51.056;9.466;2022-08-19T06:51:44;97341.75;;;28.91;52.71
12973;BME280;6551;51.056;9.466;2022-08-19T06:54:10;97349.72;;;29.08;52.02
12973;BME280;6551;51.056;9.466;2022-08-19T06:56:37;97354.88;;;28.85;52.65
12973;BME280;6551;51.056;9.466;2022-08-19T06:59:10;97361.84;;;29.07;52.01
12973;BME280;6551;51.056;9.466;2022-08-19T07:01:43;97364.81;;;29.26;52.06
12973;BME280;6551;51.056;9.466;2022-08-19T07:04:11;97355.75;;;29.14;52.25
12973;BME280;6551;51.056;9.466;2022-08-19T07:06:37;97359.88;;;29.08;52.60
12973;BME280;6551;51.056;9.466;2022-08-19T07:09:07;97361.16;;;29.22;52.44
12973;BME280;6551;51.056;9.466;2022-08-19T07:11:34;97351.75;;;29.11;52.25
12973;BME280;6551;51.056;9.466;2022-08-19T07:14:01;97357.59;;;29.62;51.61
12973;BME280;6551;51.056;9.466;2022-08-19T07:16:27;97355.50;;;29.71;51.22
12973;BME280;6551;51.056;9.466;2022-08-19T07:18:54;97354.41;;;29.87;50.36
12973;BME280;6551;51.056;9.466;2022-08-19T07:21:25;97352.59;;;30.07;50.55
12973;BME280;6551;51.056;9.466;2022-08-19T07:23:54;97360.50;;;29.81;49.88
12973;BME280;6551;51.056;9.466;2022-08-19T07:26:28;97355.56;;;29.74;50.39
12973;BME280;6551;51.056;9.466;2022-08-19T07:28:55;97362.78;;;30.06;49.75
12973;BME280;6551;51.056;9.466;2022-08-19T07:31:25;97356.94;;;30.24;49.56
12973;BME280;6551;51.056;9.466;2022-08-19T07:33:54;97356.31;;;30.14;49.04
12973;BME280;6551;51.056;9.466;2022-08-19T07:36:27;97357.84;;;30.43;49.62
12973;BME280;6551;51.056;9.466;2022-08-19T07:38:59;97362.53;;;30.58;48.93
12973;BME280;6551;51.056;9.466;2022-08-19T07:41:28;97360.03;;;30.85;47.61
12973;BME280;6551;51.056;9.466;2022-08-19T07:43:58;97350.09;;;30.80;48.58
12973;BME280;6551;51.056;9.466;2022-08-19T07:46:24;97347.97;;;30.89;47.77
12973;BME280;6551;51.056;9.466;2022-08-19T07:48:51;97357.22;;;31.16;47.21
12973;BME280;6551;51.056;9.466;2022-08-19T07:51:20;97354.94;;;31.18;46.66
12973;BME280;6551;51.056;9.466;2022-08-19T07:53:48;97353.66;;;31.50;46.46
12973;BME280;6551;51.056;9.466;2022-08-19T07:56:19;97359.84;;;31.28;47.01
12973;BME280;6551;51.056;9.466;2022-08-19T07:58:49;97366.97;;;32.06;45.84
12973;BME280;6551;51.056;9.466;2022-08-19T08:01:25;97361.34;;;32.21;45.08
12973;BME280;6551;51.056;9.466;2022-08-19T08:03:53;97360.81;;;32.58;44.78
12973;BME280;6551;51.056;9.466;2022-08-19T08:06:38;97358.16;;;33.43;43.70
12973;BME280;6551;51.056;9.466;2022-08-19T08:09:33;97355.53;;;33.84;42.25
12973;BME280;6551;51.056;9.466;2022-08-19T08:12:17;97365.50;;;33.92;42.28
12973;BME280;6551;51.056;9.466;2022-08-19T08:14:47;97365.63;;;33.69;42.33
12973;BME280;6551;51.056;9.466;2022-08-19T08:17:16;97363.53;;;33.59;42.24
12973;BME280;6551;51.056;9.466;2022-08-19T08:19:42;97357.28;;;33.06;43.21
12973;BME280;6551;51.056;9.466;2022-08-19T08:22:10;97365.00;;;33.23;43.44
12973;BME280;6551;51.056;9.466;2022-08-19T08:24:55;97371.91;;;32.84;43.70
12973;BME280;6551;51.056;9.466;2022-08-19T08:27:24;97385.69;;;33.07;43.56
12973;BME280;6551;51.056;9.466;2022-08-19T08:29:50;97376.22;;;32.85;43.09
12973;BME280;6551;51.056;9.466;2022-08-19T08:32:16;97384.34;;;32.74;43.27
12973;BME280;6551;51.056;9.466;2022-08-19T08:34:42;97393.41;;;32.75;43.08
12973;BME280;6551;51.056;9.466;2022-08-19T08:37:08;97393.25;;;32.64;43.26
12973;BME280;6551;51.056;9.466;2022-08-19T08:39:34;97399.91;;;32.86;42.55
12973;BME280;6551;51.056;9.466;2022-08-19T08:42:19;97404.72;;;33.15;42.24
12973;BME280;6551;51.056;9.466;2022-08-19T08:45:00;97401.03;;;33.60;41.69
12973;BME280;6551;51.056;9.466;2022-08-19T08:47:34;97407.72;;;33.59;41.83
12973;BME280;6551;51.056;9.466;2022-08-19T08:50:22;97397.75;;;34.14;40.81
12973;BME280;6551;51.056;9.466;2022-08-19T08:52:54;97412.59;;;34.76;40.37
12973;BME280;6551;51.056;9.466;2022-08-19T08:55:25;97409.06;;;35.30;38.84
12973;BME280;6551;51.056;9.466;2022-08-19T08:58:03;97405.44;;;35.22;39.54
12973;BME280;6551;51.056;9.466;2022-08-19T09:00:33;97399.28;;;35.50;39.53
12973;BME280;6551;51.056;9.466;2022-08-19T09:03:01;97399.41;;;35.68;38.52
12973;BME280;6551;51.056;9.466;2022-08-19T09:06:31;97401.53;;;36.10;38.45
12973;BME280;6551;51.056;9.466;2022-08-19T09:15:01;97401.91;;;36.05;38.30
12973;BME280;6551;51.056;9.466;2022-08-19T09:17:30;97401.88;;;35.98;38.09
12973;BME280;6551;51.056;9.466;2022-08-19T09:20:20;97399.56;;;36.10;38.34
12973;BME280;6551;51.056;9.466;2022-08-19T09:22:47;97404.31;;;36.13;38.58
12973;BME280;6551;51.056;9.466;2022-08-19T09:25:20;97397.44;;;35.75;38.80
12973;BME280;6551;51.056;9.466;2022-08-19T09:27:50;97396.38;;;35.26;38.79
12973;BME280;6551;51.056;9.466;2022-08-19T09:30:22;97398.38;;;34.78;39.85
12973;BME280;6551;51.056;9.466;2022-08-19T09:32:50;97395.19;;;34.35;40.39
12973;BME280;6551;51.056;9.466;2022-08-19T09:35:19;97409.19;;;33.79;40.80
12973;BME280;6551;51.056;9.466;2022-08-19T09:37:44;97406.66;;;33.41;41.99
12973;BME280;6551;51.056;9.466;2022-08-19T09:40:11;97415.00;;;32.69;42.58
12973;BME280;6551;51.056;9.466;2022-08-19T09:42:37;97420.94;;;32.29;43.40
12973;BME280;6551;51.056;9.466;2022-08-19T09:45:04;97417.44;;;31.71;44.49
12973;BME280;6551;51.056;9.466;2022-08-19T09:47:31;97419.31;;;31.67;44.73
12973;BME280;6551;51.056;9.466;2022-08-19T09:49:57;97416.97;;;32.27;43.85
12973;BME280;6551;51.056;9.466;2022-08-19T09:52:23;97412.63;;;32.68;42.99
12973;BME280;6551;51.056;9.466;2022-08-19T09:54:52;97405.44;;;33.38;41.25
12973;BME280;6551;51.056;9.466;2022-08-19T09:57:18;97407.72;;;33.33;41.49
12973;BME280;6551;51.056;9.466;2022-08-19T09:59:44;97408.59;;;33.11;40.89
12973;BME280;6551;51.056;9.466;2022-08-19T10:02:10;97403.41;;;33.62;41.17
12973;BME280;6551;51.056;9.466;2022-08-19T10:04:36;97399.75;;;33.84;40.82
12973;BME280;6551;51.056;9.466;2022-08-19T10:07:20;97390.88;;;34.38;39.62
12973;BME280;6551;51.056;9.466;2022-08-19T10:09:47;97383.47;;;34.08;39.41
12973;BME280;6551;51.056;9.466;2022-08-19T10:12:12;97389.84;;;34.13;40.84
12973;BME280;6551;51.056;9.466;2022-08-19T10:14:39;97401.00;;;33.90;40.64
12973;BME280;6551;51.056;9.466;2022-08-19T10:17:05;97395.53;;;34.30;40.70
12973;BME280;6551;51.056;9.466;2022-08-19T10:19:30;97396.09;;;34.46;40.13
12973;BME280;6551;51.056;9.466;2022-08-19T10:22:06;97394.75;;;34.70;40.53
12973;BME280;6551;51.056;9.466;2022-08-19T10:24:33;97393.75;;;34.92;39.92
12973;BME280;6551;51.056;9.466;2022-08-19T10:27:00;97394.44;;;34.82;39.69
12973;BME280;6551;51.056;9.466;2022-08-19T10:29:30;97394.97;;;34.51;39.63
12973;BME280;6551;51.056;9.466;2022-08-19T10:31:58;97389.94;;;34.63;38.91
12973;BME280;6551;51.056;9.466;2022-08-19T10:34:26;97389.91;;;34.60;39.41
12973;BME280;6551;51.056;9.466;2022-08-19T10:36:52;97382.97;;;34.80;39.81
12973;BME280;6551;51.056;9.466;2022-08-19T10:39:17;97378.13;;;35.21;39.14
12973;BME280;6551;51.056;9.466;2022-08-19T10:41:43;97385.69;;;35.28;38.31
12973;BME280;6551;51.056;9.466;2022-08-19T10:44:11;97385.28;;;35.22;38.76
12973;BME280;6551;51.056;9.466;2022-08-19T10:46:40;97388.97;;;34.89;39.14
12973;BME280;6551;51.056;9.466;2022-08-19T10:49:08;97391.81;;;35.00;39.07
12973;BME280;6551;51.056;9.466;2022-08-19T10:51:34;97385.69;;;34.73;38.99
12973;BME280;6551;51.056;9.466;2022-08-19T10:54:19;97378.06;;;35.10;38.73
12973;BME280;6551;51.056;9.466;2022-08-19T10:56:44;97377.50;;;35.49;37.61
12973;BME280;6551;51.056;9.466;2022-08-19T10:59:29;97370.25;;;36.09;37.41
12973;BME280;6551;51.056;9.466;2022-08-19T11:02:00;97361.19;;;36.37;36.60
12973;BME280;6551;51.056;9.466;2022-08-19T11:04:28;97365.97;;;36.82;36.17
12973;BME280;6551;51.056;9.466;2022-08-19T11:06:53;97358.81;;;36.46;35.83
12973;BME280;6551;51.056;9.466;2022-08-19T11:09:22;97365.19;;;36.89;34.93
12973;BME280;6551;51.056;9.466;2022-08-19T11:11:55;97357.66;;;36.79;35.06
12973;BME280;6551;51.056;9.466;2022-08-19T11:14:23;97348.94;;;36.70;35.04
12973;BME280;6551;51.056;9.466;2022-08-19T11:16:52;97344.91;;;37.13;35.04
12973;BME280;6551;51.056;9.466;2022-08-19T11:19:21;97354.09;;;37.07;35.28
12973;BME280;6551;51.056;9.466;2022-08-19T11:21:49;97356.00;;;37.45;35.14
12973;BME280;6551;51.056;9.466;2022-08-19T11:24:23;97356.78;;;37.42;34.74
12973;BME280;6551;51.056;9.466;2022-08-19T11:26:52;97346.06;;;37.30;34.86
12973;BME280;6551;51.056;9.466;2022-08-19T11:29:21;97352.41;;;37.44;35.24
12973;BME280;6551;51.056;9.466;2022-08-19T11:31:49;97348.03;;;37.54;35.26
12973;BME280;6551;51.056;9.466;2022-08-19T11:34:19;97343.31;;;37.16;34.65
12973;BME280;6551;51.056;9.466;2022-08-19T11:36:49;97338.63;;;36.99;35.54
12973;BME280;6551;51.056;9.466;2022-08-19T11:39:20;97343.38;;;36.98;35.83
12973;BME280;6551;51.056;9.466;2022-08-19T11:41:47;97344.53;;;36.93;35.01
12973;BME280;6551;51.056;9.466;2022-08-19T11:44:14;97348.94;;;36.59;35.25
12973;BME280;6551;51.056;9.466;2022-08-19T11:46:41;97343.38;;;36.56;35.15
12973;BME280;6551;51.056;9.466;2022-08-19T11:49:11;97342.19;;;36.60;35.75
12973;BME280;6551;51.056;9.466;2022-08-19T11:51:37;97348.53;;;36.64;35.34
12973;BME280;6551;51.056;9.466;2022-08-19T11:54:05;97341.78;;;36.48;35.77
12973;BME280;6551;51.056;9.466;2022-08-19T11:56:31;97337.03;;;36.73;35.40
12973;BME280;6551;51.056;9.466;2022-08-19T11:58:57;97336.66;;;36.53;35.01
12973;BME280;6551;51.056;9.466;2022-08-19T12:01:25;97345.34;;;36.66;35.72
12973;BME280;6551;51.056;9.466;2022-08-19T12:03:54;97330.28;;;37.02;34.78
12973;BME280;6551;51.056;9.466;2022-08-19T12:06:27;97323.53;;;36.71;35.48
12973;BME280;6551;51.056;9.466;2022-08-19T12:08:56;97323.94;;;36.80;35.83
12973;BME280;6551;51.056;9.466;2022-08-19T12:11:23;97335.41;;;36.44;35.58
12973;BME280;6551;51.056;9.466;2022-08-19T12:13:49;97329.09;;;36.29;35.31
12973;BME280;6551;51.056;9.466;2022-08-19T12:16:19;97331.03;;;36.21;35.48
12973;BME280;6551;51.056;9.466;2022-08-19T12:18:46;97335.00;;;36.17;36.31
12973;BME280;6551;51.056;9.466;2022-08-19T12:21:19;97328.97;;;35.87;36.54
12973;BME280;6551;51.056;9.466;2022-08-19T12:23:48;97324.63;;;35.89;36.24
12973;BME280;6551;51.056;9.466;2022-08-19T12:26:14;97325.00;;;35.80;36.55
12973;BME280;6551;51.056;9.466;2022-08-19T12:28:39;97322.25;;;35.95;36.22
12973;BME280;6551;51.056;9.466;2022-08-19T12:31:07;97317.50;;;35.99;36.07
12973;BME280;6551;51.056;9.466;2022-08-19T12:33:33;97333.03;;;36.35;36.53
12973;BME280;6551;51.056;9.466;2022-08-19T12:36:05;97323.91;;;36.06;35.52
12973;BME280;6551;51.056;9.466;2022-08-19T12:38:32;97328.91;;;35.65;36.54
12973;BME280;6551;51.056;9.466;2022-08-19T12:40:59;97325.63;;;35.39;36.78
12973;BME280;6551;51.056;9.466;2022-08-19T12:43:25;97324.84;;;35.49;37.26
12973;BME280;6551;51.056;9.466;2022-08-19T12:45:51;97319.75;;;35.51;36.84
12973;BME280;6551;51.056;9.466;2022-08-19T12:48:16;97319.41;;;35.63;37.13
12973;BME280;6551;51.056;9.466;2022-08-19T12:50:44;97315.84;;;35.62;36.31
12973;BME280;6551;51.056;9.466;2022-08-19T12:53:13;97312.91;;;35.23;36.75
12973;BME280;6551;51.056;9.466;2022-08-19T12:55:41;97313.25;;;35.18;37.05
12973;BME280;6551;51.056;9.466;2022-08-19T12:58:08;97316.75;;;35.08;37.07
12973;BME280;6551;51.056;9.466;2022-08-19T13:00:34;97312.63;;;34.81;37.95
12973;BME280;6551;51.056;9.466;2022-08-19T13:03:00;97304.84;;;35.01;38.00
12973;BME280;6551;51.056;9.466;2022-08-19T13:05:29;97307.91;;;35.57;36.57
12973;BME280;6551;51.056;9.466;2022-08-19T13:07:57;97302.06;;;35.94;35.19
12973;BME280;6551;51.056;9.466;2022-08-19T13:10:30;97293.69;;;35.62;35.82
12973;BME280;6551;51.056;9.466;2022-08-19T13:12:57;97300.75;;;35.53;36.51
12973;BME280;6551;51.056;9.466;2022-08-19T13:15:25;97304.59;;;35.31;36.23
12973;BME280;6551;51.056;9.466;2022-08-19T13:17:52;97300.22;;;35.22;36.71
12973;BME280;6551;51.056;9.466;2022-08-19T13:20:20;97292.66;;;35.09;36.62
12973;BME280;6551;51.056;9.466;2022-08-19T13:22:46;97294.00;;;34.78;36.94
12973;BME280;6551;51.056;9.466;2022-08-19T13:25:14;97295.31;;;34.44;37.39
12973;BME280;6551;51.056;9.466;2022-08-19T13:27:43;97291.50;;;34.12;37.21
12973;BME280;6551;51.056;9.466;2022-08-19T13:30:11;97303.22;;;33.65;38.20
12973;BME280;6551;51.056;9.466;2022-08-19T13:32:56;97296.88;;;33.61;39.14